Current | Forecast
Updated: 11:50 AM EEST on April 27, 2017
Observed at Chrysopouli, Greece
Temperature 20°C
Humidity 49%
Dew Point 9°C
Wind South at 11 km/h
Pressure 1018 hPa (Steady)
Conditions Clear
Visibility -
UV N/A
Clouds
Yesterday's Maximum 19°C
Yesterday's Minimum 7°C approx.
Yesterday's Heating Degree Days 10 approx.
Sunrise6:25 AM EEST
Sunset8:14 PM EEST
Moon Rise7:21 AM EEST
Moon Set9:26 PM EEST
Moon PhaseMoon Phase
New Moon
Raw METARMETAR LGKV 270850Z 18006KT CAVOK 20/09 Q1018


Monday
. High: 71° F.
Tuesday
. High: 75° F.
Wednesday
. High: 77° F.
Thursday
. High: 77° F.
Friday
. High: 78° F.
Saturday
. High: 77° F.
Sunday
. High: 73° F.
Monday
. High: 75° F.

Units: English | Metric

Find the Weather for any City, State or Zipcode, or Country:

U.S. State List | Severe Weather | Tropical Storms | Ski Conditions
United States | Canada | Central America | South America | Asia | Europe | Australia | Africa | Islands

Weather Underground

© Copyright 2017
The Weather Company, LLC